Bardonia, New York
Current Conditions -  °F | °C
As of 3:56 AM on Friday 28 Nov 2014 (Local Time) from KHPN Reporting Station
Clear Clear  
Wind Chill: 20°   Ceiling: Unl
Heat Index: 29°   Visibility: 10mi
Dew Point: 21°   Wind: 9mph
Humidity: 72%   Direction: 320°NW
Pressure: 30.04"   Gusts: NA
Location:  41.0984°N, 74.0095°W
Report Text: KHPN 280856Z 32008KT 10SM CLR M02/M06 A3004 RMK AO2 SLP181 T10171061 51006
Loading
Personal Weather Stations






























Interactive Weather Map New forecast layout! Learn more

10-Day Weather Forecast

Advertisements
Track Severe Weather on mobile